Time;durP1;ratioP1;P1;durP2;ratioP2;P2;SDS_P1;SDS_P2;PMS_P1;PMS_P2;Temp;Humidity;BMP_temperature;BMP_pressure;BME280_temperature;BME280_humidity;BME280_pressure;Samples;Min_cycle;Max_cycle;Signal;HPM_P1;HPM_P2
2023/01/23 00:00:32;;;;;;;19.88;8.55;;;4.00;91.70;;;;;;5084050;28;20044;-57
2023/01/23 00:02:57;;;;;;;17.88;7.70;;;4.00;91.70;;;;;;5083988;28;20037;-57
2023/01/23 00:05:23;;;;;;;18.05;7.10;;;4.00;91.70;;;;;;5085260;28;20067;-57
2023/01/23 00:07:48;;;;;;;17.58;7.38;;;4.00;91.70;;;;;;5083808;28;20047;-57
2023/01/23 00:10:14;;;;;;;16.75;7.68;;;4.00;91.70;;;;;;5066988;28;20096;-57
2023/01/23 00:12:43;;;;;;;14.52;7.68;;;4.00;91.70;;;;;;5083370;28;20040;-57
2023/01/23 00:15:10;;;;;;;18.02;8.15;;;4.00;91.70;;;;;;5083912;28;20062;-57
2023/01/23 00:17:36;;;;;;;18.00;8.15;;;4.00;91.70;;;;;;5083722;28;20020;-57
2023/01/23 00:20:03;;;;;;;18.20;7.55;;;4.00;91.70;;;;;;5083686;28;20067;-57
2023/01/23 00:22:28;;;;;;;15.75;7.55;;;4.00;91.70;;;;;;5083511;28;20025;-57
2023/01/23 00:24:54;;;;;;;25.05;8.07;;;4.00;91.70;;;;;;5085014;28;20421;-56
2023/01/23 00:27:19;;;;;;;20.50;8.30;;;3.90;91.70;;;;;;5085049;28;20031;-57
2023/01/23 00:29:46;;;;;;;17.65;7.32;;;4.00;91.70;;;;;;5083501;28;20028;-57
2023/01/23 00:32:11;;;;;;;20.55;7.07;;;4.00;91.70;;;;;;5084868;28;20429;-57
2023/01/23 00:34:37;;;;;;;16.85;8.13;;;4.00;91.70;;;;;;5083400;28;20047;-57
2023/01/23 00:37:03;;;;;;;20.63;7.80;;;4.00;91.80;;;;;;5084816;28;20048;-57
2023/01/23 00:39:28;;;;;;;16.77;8.18;;;3.90;91.80;;;;;;5083313;28;20115;-57
2023/01/23 00:41:54;;;;;;;16.95;7.55;;;4.00;91.70;;;;;;5083451;28;20052;-57
2023/01/23 00:44:19;;;;;;;19.05;8.15;;;3.90;91.70;;;;;;5084583;28;20449;-57
2023/01/23 00:46:46;;;;;;;12.23;7.43;;;4.00;91.70;;;;;;5083272;28;20025;-57
2023/01/23 00:49:11;;;;;;;17.60;7.95;;;3.90;91.70;;;;;;5083153;28;20045;-57
2023/01/23 00:51:37;;;;;;;14.27;7.80;;;3.90;91.70;;;;;;5084539;28;20357;-57
2023/01/23 00:54:03;;;;;;;13.55;7.43;;;3.90;91.80;;;;;;5083174;28;20025;-57
2023/01/23 00:56:28;;;;;;;15.45;7.78;;;3.90;91.80;;;;;;5100101;28;20025;-57
2023/01/23 00:58:54;;;;;;;14.75;7.53;;;3.90;91.80;;;;;;5084714;28;20039;-57
2023/01/23 01:01:21;;;;;;;14.60;7.25;;;3.90;91.80;;;;;;5083289;28;20062;-57
2023/01/23 01:03:47;;;;;;;14.55;7.47;;;3.90;91.80;;;;;;5083303;28;20052;-56
2023/01/23 01:06:12;;;;;;;14.63;7.68;;;3.90;92.00;;;;;;5083254;28;20020;-57
2023/01/23 01:08:38;;;;;;;12.48;7.38;;;3.90;91.70;;;;;;5084543;28;20024;-57
2023/01/23 01:11:03;;;;;;;20.88;8.60;;;3.90;91.80;;;;;;5083166;28;20060;-57
2023/01/23 01:13:29;;;;;;;12.95;7.20;;;3.90;91.70;;;;;;5066539;28;20029;-57
2023/01/23 01:15:55;;;;;;;13.90;7.53;;;3.90;91.80;;;;;;5082982;28;20064;-57
2023/01/23 01:18:20;;;;;;;16.25;7.45;;;3.90;91.80;;;;;;5082912;28;20025;-57
2023/01/23 01:20:46;;;;;;;14.85;7.38;;;3.90;91.80;;;;;;5082998;28;20025;-57
2023/01/23 01:23:12;;;;;;;12.73;7.57;;;3.90;91.80;;;;;;5083084;28;20086;-57
2023/01/23 01:25:37;;;;;;;14.93;7.40;;;3.90;91.80;;;;;;5084811;28;20051;-56
2023/01/23 01:28:03;;;;;;;13.20;7.88;;;3.90;92.10;;;;;;5086733;28;20033;-57
2023/01/23 01:30:29;;;;;;;12.82;7.55;;;3.90;91.80;;;;;;5086803;28;20045;-57
2023/01/23 01:32:54;;;;;;;14.10;7.47;;;3.90;91.80;;;;;;5086702;28;20032;-57
2023/01/23 01:35:20;;;;;;;16.90;7.70;;;3.90;91.80;;;;;;5088255;28;20024;-57
2023/01/23 01:37:46;;;;;;;13.05;7.63;;;3.90;91.70;;;;;;5103457;28;20548;-57
2023/01/23 01:40:13;;;;;;;15.65;7.57;;;3.90;91.80;;;;;;5086564;28;20067;-56
2023/01/23 01:42:44;;;;;;;12.45;7.68;;;3.90;91.80;;;;;;5086527;28;20036;-57
2023/01/23 01:45:47;;;;;;;12.90;7.53;;;3.90;91.80;;;;;;5086027;28;20033;-56
2023/01/23 01:48:13;;;;;;;11.18;7.78;;;3.90;91.80;;;;;;5087565;28;20032;-57
2023/01/23 01:50:38;;;;;;;10.55;7.13;;;3.80;91.80;;;;;;5086257;28;20032;-57
2023/01/23 01:53:04;;;;;;;13.13;7.88;;;3.90;91.80;;;;;;5086144;28;20088;-57
2023/01/23 01:55:29;;;;;;;14.18;8.20;;;3.80;91.80;;;;;;5086448;28;20086;-57
2023/01/23 01:57:55;;;;;;;18.52;8.27;;;3.80;91.80;;;;;;5086235;28;20025;-57
2023/01/23 02:00:20;;;;;;;18.98;8.63;;;3.80;91.80;;;;;;5086400;28;20016;-57
2023/01/23 02:02:50;;;;;;;13.38;8.10;;;3.80;91.90;;;;;;5086094;28;20035;-57
2023/01/23 02:05:18;;;;;;;13.05;7.53;;;3.80;91.90;;;;;;5086300;28;20083;-57
2023/01/23 02:08:00;;;;;;;17.08;8.18;;;3.80;91.90;;;;;;5086118;28;20055;-57
2023/01/23 02:10:26;;;;;;;11.93;7.80;;;3.80;91.90;;;;;;5086271;28;20115;-57
2023/01/23 02:12:52;;;;;;;12.52;8.70;;;3.80;91.90;;;;;;5085992;28;20028;-57
2023/01/23 02:15:18;;;;;;;13.27;7.80;;;3.80;91.90;;;;;;5086120;28;20123;-57
2023/01/23 02:17:44;;;;;;;12.07;7.82;;;3.80;91.90;;;;;;5068848;28;20020;-57
2023/01/23 02:20:24;;;;;;;9.18;7.60;;;3.80;91.90;;;;;;5069004;28;20035;-55
2023/01/23 02:23:00;;;;;;;12.23;8.07;;;3.80;91.90;;;;;;5085893;28;20032;-57
2023/01/23 02:25:44;;;;;;;12.20;8.20;;;3.80;91.90;;;;;;5085905;28;20040;-57
2023/01/23 02:28:14;;;;;;;13.73;8.20;;;3.80;91.90;;;;;;5085914;28;20078;-57
2023/01/23 02:30:41;;;;;;;10.50;7.65;;;3.80;91.90;;;;;;5085852;28;20068;-57
2023/01/23 02:33:30;;;;;;;15.52;8.95;;;3.80;91.90;;;;;;5086817;28;20028;-57
2023/01/23 02:36:00;;;;;;;11.25;7.97;;;3.80;91.90;;;;;;5079191;28;20033;-57
2023/01/23 02:38:30;;;;;;;12.57;7.93;;;3.80;91.90;;;;;;5085453;28;20047;-57
2023/01/23 02:40:56;;;;;;;14.23;7.53;;;3.80;91.90;;;;;;5085480;28;20054;-57
2023/01/23 02:43:23;;;;;;;14.07;8.55;;;3.80;91.90;;;;;;5085365;28;20401;-57
2023/01/23 02:45:48;;;;;;;12.40;8.68;;;3.80;91.90;;;;;;5085509;28;20064;-57
2023/01/23 02:48:14;;;;;;;15.60;8.88;;;3.80;91.90;;;;;;5086458;28;20039;-57
2023/01/23 02:50:41;;;;;;;11.77;8.60;;;3.70;91.90;;;;;;5085362;28;20449;-57
2023/01/23 02:53:07;;;;;;;15.50;8.50;;;3.70;91.90;;;;;;5085141;28;20025;-57
2023/01/23 02:55:32;;;;;;;14.60;9.05;;;3.70;91.90;;;;;;5085299;28;20034;-57
2023/01/23 03:00:45;;;;;;;12.23;8.52;;;3.70;91.90;;;;;;5085295;28;20039;-57
2023/01/23 03:03:11;;;;;;;11.18;7.75;;;3.70;92.00;;;;;;5085062;28;20059;-57
2023/01/23 03:05:36;;;;;;;14.70;9.25;;;3.80;92.00;;;;;;5085085;28;20024;-57
2023/01/23 03:08:02;;;;;;;13.52;8.52;;;3.70;91.90;;;;;;5101698;28;20036;-57
2023/01/23 03:10:29;;;;;;;11.75;8.65;;;3.70;92.20;;;;;;5086131;28;20032;-56
2023/01/23 03:12:57;;;;;;;12.75;7.85;;;3.80;91.90;;;;;;5086234;28;20039;-57
2023/01/23 03:15:22;;;;;;;13.30;8.82;;;3.70;91.90;;;;;;5084900;28;20096;-57
2023/01/23 03:17:48;;;;;;;12.13;8.85;;;3.70;91.90;;;;;;5084751;28;20165;-57
2023/01/23 03:20:16;;;;;;;12.43;8.55;;;3.70;91.90;;;;;;5067935;28;20047;-57
2023/01/23 03:22:42;;;;;;;12.05;8.30;;;3.70;91.90;;;;;;5084535;28;20063;-57
2023/01/23 03:25:08;;;;;;;13.38;8.80;;;3.70;91.90;;;;;;5084597;28;20028;-57
2023/01/23 03:27:35;;;;;;;14.85;9.02;;;3.80;92.20;;;;;;5085886;28;20094;-57
2023/01/23 03:30:13;;;;;;;13.60;9.23;;;3.70;91.80;;;;;;5068028;28;20043;-57
2023/01/23 03:32:41;;;;;;;11.63;8.73;;;3.80;91.80;;;;;;5084545;28;20173;-57
2023/01/23 03:35:09;;;;;;;11.77;8.82;;;3.70;92.10;;;;;;5084516;28;20020;-57
2023/01/23 03:37:34;;;;;;;13.80;9.32;;;3.70;91.80;;;;;;5084144;28;20033;-57
2023/01/23 03:42:44;;;;;;;14.02;9.48;;;3.70;91.90;;;;;;5085702;28;20043;-57
2023/01/23 03:45:09;;;;;;;11.77;9.85;;;3.70;91.90;;;;;;5084293;28;20036;-57
2023/01/23 03:47:35;;;;;;;11.40;9.27;;;3.80;91.90;;;;;;5083353;28;20060;-57
2023/01/23 03:50:01;;;;;;;13.30;9.05;;;3.80;92.00;;;;;;5085638;28;20033;-57
2023/01/23 03:52:26;;;;;;;12.07;8.95;;;3.80;91.90;;;;;;5084056;28;20028;-57
2023/01/23 03:54:52;;;;;;;11.85;9.98;;;3.80;91.90;;;;;;5084190;28;20459;-57
2023/01/23 03:57:17;;;;;;;11.48;8.48;;;3.80;92.00;;;;;;5085463;28;20158;-57
2023/01/23 03:59:43;;;;;;;13.75;9.38;;;3.80;92.00;;;;;;5067105;28;20119;-57
2023/01/23 04:02:08;;;;;;;12.88;9.43;;;3.80;92.10;;;;;;5085297;28;20025;-57
2023/01/23 04:04:34;;;;;;;12.27;9.20;;;3.80;92.10;;;;;;5083889;28;20098;-57
2023/01/23 04:07:00;;;;;;;11.90;8.98;;;3.80;92.20;;;;;;5083851;28;20020;-57
2023/01/23 04:09:26;;;;;;;13.57;9.02;;;3.80;92.20;;;;;;5083837;28;20036;-57
2023/01/23 04:11:53;;;;;;;14.10;8.65;;;3.80;92.20;;;;;;5083709;28;20052;-57
2023/01/23 04:14:20;;;;;;;10.27;8.93;;;3.80;92.20;;;;;;5083819;28;20028;-57
2023/01/23 04:16:45;;;;;;;10.15;8.80;;;3.80;92.20;;;;;;5083811;28;20029;-57
2023/01/23 04:19:11;;;;;;;11.35;9.07;;;3.80;92.20;;;;;;5083675;28;20107;-57
2023/01/23 04:21:36;;;;;;;10.57;8.82;;;3.80;92.20;;;;;;5083623;28;20050;-57
2023/01/23 04:24:02;;;;;;;12.70;10.05;;;3.80;92.20;;;;;;5083839;28;20066;-57
2023/01/23 04:26:27;;;;;;;10.85;8.95;;;3.80;92.20;;;;;;5083627;28;20036;-57
2023/01/23 04:28:53;;;;;;;10.73;9.43;;;3.80;92.10;;;;;;5085177;28;20032;-57
2023/01/23 04:31:18;;;;;;;9.65;8.52;;;3.80;92.10;;;;;;5084939;28;20090;-56
2023/01/23 04:33:44;;;;;;;12.25;9.80;;;3.80;92.10;;;;;;5084983;28;20029;-57
2023/01/23 04:36:10;;;;;;;14.95;9.35;;;3.80;92.10;;;;;;5083779;28;20051;-57
2023/01/23 04:38:35;;;;;;;10.60;8.80;;;3.80;92.10;;;;;;5084963;28;20016;-57
2023/01/23 04:41:01;;;;;;;11.52;9.23;;;3.80;92.10;;;;;;5083519;28;20039;-57
2023/01/23 04:43:27;;;;;;;12.35;9.55;;;3.80;92.10;;;;;;5083536;28;20033;-57
2023/01/23 04:45:52;;;;;;;13.77;9.05;;;3.80;92.10;;;;;;5083525;28;20111;-57
2023/01/23 04:48:18;;;;;;;11.98;9.48;;;3.80;92.10;;;;;;5084729;28;20051;-57
2023/01/23 04:50:44;;;;;;;11.05;9.02;;;3.80;92.10;;;;;;5085095;28;20060;-57
2023/01/23 04:53:10;;;;;;;13.57;9.57;;;3.80;92.10;;;;;;5083308;28;20032;-57
2023/01/23 04:55:35;;;;;;;11.77;9.27;;;3.80;92.00;;;;;;5083173;28;20422;-57
2023/01/23 04:58:01;;;;;;;11.32;9.73;;;3.80;92.00;;;;;;5084704;28;20039;-57
2023/01/23 05:00:27;;;;;;;12.00;9.98;;;3.80;91.90;;;;;;5085264;28;20024;-57
2023/01/23 05:02:53;;;;;;;13.07;10.05;;;3.80;91.90;;;;;;5087488;28;20116;-57
2023/01/23 05:05:21;;;;;;;16.15;10.45;;;3.80;91.90;;;;;;5087605;28;20035;-57
2023/01/23 05:07:47;;;;;;;11.40;9.90;;;3.80;91.80;;;;;;5087424;28;20151;-57
2023/01/23 05:10:13;;;;;;;12.00;9.43;;;3.80;91.80;;;;;;5087312;28;20181;-57
2023/01/23 05:12:38;;;;;;;15.63;9.35;;;3.80;91.80;;;;;;5087075;28;20051;-57
2023/01/23 05:15:05;;;;;;;11.63;9.82;;;3.80;91.80;;;;;;5087292;28;20044;-57
2023/01/23 05:17:30;;;;;;;11.35;9.10;;;3.80;91.80;;;;;;5070221;28;20457;-57
2023/01/23 05:19:56;;;;;;;13.32;10.13;;;3.80;91.80;;;;;;5088488;28;20040;-57
2023/01/23 05:22:22;;;;;;;11.18;9.75;;;3.80;91.70;;;;;;5086993;28;20024;-57
2023/01/23 05:24:48;;;;;;;13.60;9.43;;;3.80;91.70;;;;;;5070076;28;20104;-57
2023/01/23 05:27:13;;;;;;;11.02;9.77;;;3.70;91.70;;;;;;5086915;28;20028;-57
2023/01/23 05:29:39;;;;;;;13.20;9.48;;;3.70;91.70;;;;;;5088201;28;20092;-56
2023/01/23 05:32:04;;;;;;;11.63;10.38;;;3.70;91.70;;;;;;5087948;28;20054;-57
2023/01/23 05:34:30;;;;;;;11.70;9.55;;;3.70;91.60;;;;;;5086724;28;20028;-57
2023/01/23 05:36:56;;;;;;;13.02;10.18;;;3.70;91.60;;;;;;5087970;28;20029;-57
2023/01/23 05:39:21;;;;;;;13.20;10.07;;;3.70;91.60;;;;;;5086638;28;20036;-57
2023/01/23 05:41:47;;;;;;;13.50;9.60;;;3.60;91.60;;;;;;5086568;28;20086;-57
2023/01/23 05:44:12;;;;;;;13.68;10.68;;;3.70;91.60;;;;;;5086680;28;20078;-57
2023/01/23 05:46:38;;;;;;;13.50;10.05;;;3.60;91.60;;;;;;5069848;28;20043;-57
2023/01/23 05:49:03;;;;;;;12.25;9.90;;;3.60;91.60;;;;;;5086281;28;20036;-57
2023/01/23 05:51:32;;;;;;;14.63;9.93;;;3.60;91.60;;;;;;5086254;28;20038;-57
2023/01/23 05:53:59;;;;;;;12.25;9.75;;;3.60;91.60;;;;;;5086565;28;20033;-57
2023/01/23 05:56:24;;;;;;;11.80;10.25;;;3.60;91.60;;;;;;5086269;28;20425;-57
2023/01/23 05:58:50;;;;;;;11.52;9.48;;;3.60;91.60;;;;;;5086324;28;20028;-57
2023/01/23 06:01:16;;;;;;;13.00;10.23;;;3.50;91.60;;;;;;5069531;28;20039;-57
2023/01/23 06:03:41;;;;;;;11.38;9.77;;;3.50;91.50;;;;;;5086285;28;20021;-57
2023/01/23 06:06:07;;;;;;;13.02;9.48;;;3.50;91.50;;;;;;5087496;28;20193;-57
2023/01/23 06:08:32;;;;;;;11.85;9.68;;;3.50;91.80;;;;;;5086205;28;20032;-57
2023/01/23 06:10:58;;;;;;;12.52;9.80;;;3.50;91.50;;;;;;5086802;28;20033;-57
2023/01/23 06:13:25;;;;;;;11.20;10.02;;;3.50;91.50;;;;;;5085999;28;20040;-57
2023/01/23 06:15:50;;;;;;;12.07;9.27;;;3.50;91.40;;;;;;5086081;28;20025;-57
2023/01/23 06:18:16;;;;;;;13.52;10.30;;;3.40;91.40;;;;;;5085987;28;20036;-57
2023/01/23 06:20:41;;;;;;;13.07;10.00;;;3.40;91.30;;;;;;5087341;28;20097;-57
2023/01/23 06:23:07;;;;;;;11.68;9.85;;;3.40;91.30;;;;;;5087283;28;20039;-57
2023/01/23 06:25:32;;;;;;;12.10;10.50;;;3.40;91.30;;;;;;5085908;28;20488;-57
2023/01/23 06:27:58;;;;;;;12.27;10.27;;;3.40;91.30;;;;;;5102635;28;20033;-57
2023/01/23 06:30:23;;;;;;;10.90;9.30;;;3.40;91.30;;;;;;5087331;28;20032;-57
2023/01/23 06:32:49;;;;;;;12.07;10.23;;;3.40;91.30;;;;;;5085615;28;20033;-57
2023/01/23 06:35:15;;;;;;;11.55;9.38;;;3.40;91.30;;;;;;5085638;28;20033;-57
2023/01/23 06:37:40;;;;;;;11.35;10.00;;;3.40;91.30;;;;;;5085608;28;20028;-57
2023/01/23 06:40:07;;;;;;;12.38;10.32;;;3.40;91.20;;;;;;5086832;28;20549;-57
2023/01/23 06:42:32;;;;;;;12.27;9.60;;;3.40;91.20;;;;;;5085449;28;20453;-57
2023/01/23 06:44:58;;;;;;;13.27;10.50;;;3.40;91.20;;;;;;5086884;28;20047;-57
2023/01/23 06:47:23;;;;;;;13.77;11.23;;;3.40;91.20;;;;;;5068539;28;20032;-57
2023/01/23 06:49:49;;;;;;;12.38;9.75;;;3.30;91.20;;;;;;5085328;28;20029;-57
2023/01/23 06:52:14;;;;;;;12.73;9.93;;;3.30;91.10;;;;;;5086773;28;20084;-56
2023/01/23 06:54:40;;;;;;;11.77;9.98;;;3.40;91.10;;;;;;5086813;28;20365;-57
2023/01/23 06:57:05;;;;;;;11.77;10.23;;;3.30;91.10;;;;;;5085186;28;20024;-57
2023/01/23 06:59:31;;;;;;;12.10;10.38;;;3.30;91.10;;;;;;5085168;28;20076;-57
2023/01/23 07:01:56;;;;;;;11.52;9.95;;;3.30;91.10;;;;;;5084961;28;20404;-57
2023/01/23 07:04:22;;;;;;;11.05;9.63;;;3.30;91.00;;;;;;5086377;28;20025;-57
2023/01/23 07:06:48;;;;;;;12.18;10.38;;;3.30;91.00;;;;;;5084875;28;20039;-57
2023/01/23 07:09:13;;;;;;;11.70;10.40;;;3.30;90.90;;;;;;5084680;28;20028;-57
2023/01/23 07:11:39;;;;;;;12.40;9.52;;;3.30;90.90;;;;;;5084857;28;20107;-57
2023/01/23 07:14:04;;;;;;;11.48;9.95;;;3.30;90.90;;;;;;5084723;28;20025;-57
2023/01/23 07:16:30;;;;;;;11.80;9.15;;;3.30;90.90;;;;;;5084684;28;20025;-57
2023/01/23 07:18:57;;;;;;;11.95;10.07;;;3.30;90.90;;;;;;5084580;28;20077;-57
2023/01/23 07:21:23;;;;;;;11.20;9.80;;;3.30;90.90;;;;;;5084676;28;20055;-57
2023/01/23 07:23:49;;;;;;;11.02;9.38;;;3.30;90.90;;;;;;5083712;28;20464;-57
2023/01/23 07:26:15;;;;;;;11.10;9.75;;;3.20;90.90;;;;;;5086048;28;20025;-57
2023/01/23 07:28:40;;;;;;;11.10;9.77;;;3.20;90.80;;;;;;5085888;28;20116;-57
2023/01/23 07:31:06;;;;;;;11.38;9.57;;;3.20;90.80;;;;;;5085832;28;20029;-57
2023/01/23 07:33:32;;;;;;;12.98;9.73;;;3.20;90.80;;;;;;5085723;28;20039;-57
2023/01/23 07:35:57;;;;;;;11.50;9.68;;;3.20;90.80;;;;;;5084466;28;20039;-57
2023/01/23 07:38:23;;;;;;;12.27;9.45;;;3.20;90.80;;;;;;5084369;28;20070;-57
2023/01/23 07:40:49;;;;;;;12.13;9.73;;;3.20;91.10;;;;;;5084428;28;20500;-57
2023/01/23 07:43:15;;;;;;;13.02;9.65;;;3.20;90.70;;;;;;5084312;28;20036;-57
2023/01/23 07:45:40;;;;;;;12.98;10.23;;;3.20;90.70;;;;;;5085549;28;20033;-57
2023/01/23 07:48:06;;;;;;;12.30;9.52;;;3.20;90.60;;;;;;5085416;28;20060;-57
2023/01/23 07:50:31;;;;;;;11.27;9.75;;;3.20;90.60;;;;;;5067306;28;20032;-57
2023/01/23 07:52:57;;;;;;;11.00;9.63;;;3.20;90.60;;;;;;5084061;28;20095;-57
2023/01/23 07:55:22;;;;;;;11.50;10.07;;;3.20;90.60;;;;;;5085548;28;20169;-57
2023/01/23 07:57:48;;;;;;;15.63;10.13;;;3.20;90.60;;;;;;5083933;28;20135;-57
2023/01/23 08:00:14;;;;;;;15.95;10.27;;;3.20;90.60;;;;;;5100780;28;20035;-57
2023/01/23 08:02:39;;;;;;;11.73;9.32;;;3.20;90.60;;;;;;5083951;28;20092;-57
2023/01/23 08:05:05;;;;;;;12.10;9.82;;;3.20;90.60;;;;;;5084006;28;20092;-57
2023/01/23 08:07:31;;;;;;;12.38;9.75;;;3.20;90.60;;;;;;5100567;28;20059;-57
2023/01/23 08:09:57;;;;;;;12.85;9.10;;;3.20;90.60;;;;;;5067084;28;20031;-57
2023/01/23 08:12:22;;;;;;;11.50;9.18;;;3.20;90.60;;;;;;5085083;28;20032;-57
2023/01/23 08:14:48;;;;;;;12.88;9.77;;;3.20;90.60;;;;;;5083727;28;20117;-57
2023/01/23 08:17:13;;;;;;;15.98;9.43;;;3.20;90.60;;;;;;5100831;28;20047;-57
2023/01/23 08:19:39;;;;;;;15.02;10.70;;;3.20;90.60;;;;;;5083910;28;20025;-57
2023/01/23 08:22:04;;;;;;;13.30;9.18;;;3.20;90.50;;;;;;5084744;28;20084;-57
2023/01/23 08:24:30;;;;;;;12.45;10.30;;;3.20;90.50;;;;;;5083439;28;20028;-56
2023/01/23 08:26:56;;;;;;;14.00;9.95;;;3.20;90.60;;;;;;5083486;28;20039;-57
2023/01/23 08:29:21;;;;;;;15.75;9.68;;;3.20;90.60;;;;;;5084867;28;20029;-57
2023/01/23 08:31:47;;;;;;;10.82;9.68;;;3.20;90.60;;;;;;5084587;28;20045;-57
2023/01/23 08:34:12;;;;;;;11.30;9.43;;;3.20;90.60;;;;;;5083305;28;20024;-57
2023/01/23 08:36:38;;;;;;;11.68;9.75;;;3.20;90.60;;;;;;5083655;28;20032;-57
2023/01/23 08:39:03;;;;;;;12.65;9.77;;;3.20;90.60;;;;;;5084864;28;20035;-56
2023/01/23 08:41:29;;;;;;;11.82;9.85;;;3.20;90.60;;;;;;5085055;28;20021;-57
2023/01/23 08:43:57;;;;;;;12.45;9.73;;;3.20;90.60;;;;;;5083735;28;20020;-58
2023/01/23 08:46:22;;;;;;;13.18;9.93;;;3.20;90.50;;;;;;5100022;28;20044;-58
2023/01/23 08:48:48;;;;;;;18.55;9.82;;;3.20;90.50;;;;;;5066413;28;20024;-58
2023/01/23 08:51:13;;;;;;;12.07;9.32;;;3.20;90.50;;;;;;5084714;28;20035;-58
2023/01/23 08:53:39;;;;;;;13.35;9.88;;;3.20;90.60;;;;;;5083269;28;20451;-58
2023/01/23 08:56:07;;;;;;;14.77;9.73;;;3.20;90.50;;;;;;5083123;28;20470;-58
2023/01/23 08:58:33;;;;;;;21.92;10.18;;;3.20;90.50;;;;;;5083133;28;20021;-58
2023/01/23 09:00:58;;;;;;;36.15;10.65;;;3.30;90.60;;;;;;5083226;28;20075;-58
2023/01/23 09:03:24;;;;;;;18.80;10.23;;;3.20;90.70;;;;;;5083187;28;20105;-58
2023/01/23 09:05:49;;;;;;;11.40;9.32;;;3.20;90.70;;;;;;5084434;28;20028;-58
2023/01/23 09:08:15;;;;;;;19.45;10.23;;;3.30;90.60;;;;;;5083024;28;20033;-58
2023/01/23 09:10:40;;;;;;;13.13;8.48;;;3.30;90.50;;;;;;5082997;28;20067;-58
2023/01/23 09:13:06;;;;;;;11.23;9.02;;;3.30;90.40;;;;;;5083147;28;20106;-58
2023/01/23 09:15:31;;;;;;;21.15;10.48;;;3.30;90.40;;;;;;5084279;28;20035;-58
2023/01/23 09:17:57;;;;;;;24.17;10.25;;;3.30;90.40;;;;;;5084443;28;20024;-58
2023/01/23 09:20:25;;;;;;;20.48;10.38;;;3.30;90.40;;;;;;5082853;28;20036;-59
2023/01/23 09:22:51;;;;;;;15.63;8.05;;;3.30;90.40;;;;;;5082886;28;20368;-58
2023/01/23 09:25:17;;;;;;;16.67;9.80;;;3.30;90.40;;;;;;5082886;28;20029;-58
2023/01/23 09:27:42;;;;;;;21.30;10.35;;;3.30;90.50;;;;;;5082923;28;20430;-58
2023/01/23 09:30:09;;;;;;;23.20;9.38;;;3.30;90.50;;;;;;5082696;28;20036;-58
2023/01/23 09:32:34;;;;;;;24.27;10.40;;;3.40;90.50;;;;;;5084055;28;20127;-58
2023/01/23 09:35:00;;;;;;;15.90;9.50;;;3.40;90.70;;;;;;5082943;28;20051;-59
2023/01/23 09:37:58;;;;;;;19.70;9.93;;;3.40;90.60;;;;;;5084243;28;20473;-58
2023/01/23 09:40:16;;;;;;;19.92;9.32;;;3.40;90.50;;;;;;5082833;28;20028;-58
2023/01/23 09:42:42;;;;;;;25.30;10.73;;;3.40;90.50;;;;;;5082723;28;20362;-58
2023/01/23 09:45:09;;;;;;;29.80;9.80;;;3.40;90.40;;;;;;5099561;28;20039;-58
2023/01/23 09:47:41;;;;;;;25.58;9.80;;;3.40;90.40;;;;;;5085959;28;20032;-58
2023/01/23 09:50:11;;;;;;;27.73;9.80;;;3.40;90.40;;;;;;5086357;28;20036;-58
2023/01/23 09:52:45;;;;;;;20.95;9.57;;;3.40;90.40;;;;;;5086259;28;20037;-58
2023/01/23 09:55:21;;;;;;;32.53;11.27;;;3.40;90.40;;;;;;5086474;28;20040;-58
2023/01/23 09:57:57;;;;;;;41.05;12.25;;;3.40;90.50;;;;;;5086393;28;20017;-58
2023/01/23 10:00:28;;;;;;;42.67;11.93;;;3.40;90.70;;;;;;5086210;28;20032;-58
2023/01/23 10:02:55;;;;;;;37.15;12.43;;;3.40;90.70;;;;;;5086121;28;20035;-58
2023/01/23 10:05:41;;;;;;;71.80;13.25;;;3.40;90.80;;;;;;5086153;28;20112;-58
2023/01/23 10:08:17;;;;;;;44.80;12.15;;;3.40;90.80;;;;;;5086387;28;20032;-58
2023/01/23 10:10:46;;;;;;;28.90;10.73;;;3.40;90.70;;;;;;5086395;28;20040;-58
2023/01/23 10:13:39;;;;;;;33.70;10.52;;;3.40;90.60;;;;;;5087412;28;20373;-58
2023/01/23 10:16:17;;;;;;;37.40;11.32;;;3.50;90.60;;;;;;5087382;28;20055;-58
2023/01/23 10:18:45;;;;;;;38.95;11.88;;;3.40;90.60;;;;;;5106370;28;20024;-58
2023/01/23 10:21:20;;;;;;;51.45;13.00;;;3.50;90.60;;;;;;5107483;28;20097;-58
2023/01/23 10:24:00;;;;;;;49.45;11.82;;;3.50;90.60;;;;;;5106005;28;20084;-58
2023/01/23 10:26:30;;;;;;;40.20;10.63;;;3.50;90.60;;;;;;5106194;28;20051;-59
2023/01/23 10:28:59;;;;;;;38.20;12.45;;;3.50;90.60;;;;;;5106063;28;20036;-58
2023/01/23 10:31:37;;;;;;;45.60;11.93;;;3.50;90.60;;;;;;5106186;28;20042;-58
2023/01/23 10:34:05;;;;;;;35.80;11.40;;;3.50;90.70;;;;;;5107080;28;20024;-58
2023/01/23 10:36:35;;;;;;;34.00;11.73;;;3.50;90.70;;;;;;5105501;28;20019;-58
2023/01/23 10:39:07;;;;;;;47.15;12.45;;;3.50;90.70;;;;;;5088774;28;20028;-58
2023/01/23 10:41:33;;;;;;;50.05;12.32;;;3.50;90.70;;;;;;5105941;28;20084;-58
2023/01/23 10:43:58;;;;;;;64.95;13.77;;;3.50;90.70;;;;;;5088813;28;20054;-58
2023/01/23 10:46:34;;;;;;;58.92;13.40;;;3.50;90.80;;;;;;5088603;28;20024;-58
2023/01/23 10:49:00;;;;;;;228.48;28.08;;;3.50;90.90;;;;;;5105582;28;20040;-58
2023/01/23 10:51:45;;;;;;;89.20;16.65;;;3.50;90.80;;;;;;5105781;28;20024;-58
2023/01/23 10:54:12;;;;;;;72.70;15.85;;;3.60;90.90;;;;;;5105787;28;20054;-58
2023/01/23 10:57:02;;;;;;;74.03;14.68;;;3.50;91.00;;;;;;5088425;28;20032;-58
2023/01/23 10:59:29;;;;;;;74.95;16.50;;;3.50;91.00;;;;;;5094838;28;20608;-58
2023/01/23 11:02:14;;;;;;;65.78;14.52;;;3.60;91.00;;;;;;5105191;28;20033;-58
2023/01/23 11:04:41;;;;;;;56.15;14.38;;;3.60;90.90;;;;;;5105573;28;20112;-58
2023/01/23 11:07:19;;;;;;;67.93;15.27;;;3.60;91.00;;;;;;5106326;28;20066;-58
2023/01/23 11:09:52;;;;;;;77.97;15.93;;;3.60;91.00;;;;;;5106441;28;20028;-59
2023/01/23 11:12:20;;;;;;;70.85;14.50;;;3.60;91.00;;;;;;5104633;28;20089;-59
2023/01/23 11:14:45;;;;;;;55.95;14.55;;;3.60;91.00;;;;;;5105055;28;20031;-58
2023/01/23 11:17:22;;;;;;;63.03;15.93;;;3.60;91.00;;;;;;5104877;28;20024;-58
2023/01/23 11:19:51;;;;;;;53.50;14.80;;;3.60;91.10;;;;;;5088148;28;20034;-58
2023/01/23 11:22:32;;;;;;;52.17;14.32;;;3.60;91.10;;;;;;5105109;28;20040;-59
2023/01/23 11:24:58;;;;;;;72.32;16.42;;;3.60;91.00;;;;;;5087563;28;20036;-59
2023/01/23 11:27:28;;;;;;;76.00;14.85;;;3.60;91.00;;;;;;5104550;28;20036;-58
2023/01/23 11:30:00;;;;;;;59.60;15.82;;;3.60;91.00;;;;;;5104883;28;20024;-58
2023/01/23 11:32:25;;;;;;;61.13;16.40;;;3.60;91.10;;;;;;5106072;28;20066;-58
2023/01/23 11:34:56;;;;;;;46.60;14.45;;;3.60;91.10;;;;;;5087779;28;20021;-58
2023/01/23 11:37:27;;;;;;;58.63;15.50;;;3.60;91.10;;;;;;5104921;28;20040;-58
2023/01/23 11:40:07;;;;;;;62.13;15.27;;;3.70;91.10;;;;;;5104853;28;20108;-58
2023/01/23 11:42:32;;;;;;;55.40;16.05;;;3.70;91.10;;;;;;5104511;28;20032;-58
2023/01/23 11:44:58;;;;;;;51.92;15.43;;;3.60;91.10;;;;;;5087697;28;20039;-59
2023/01/23 11:47:52;;;;;;;91.15;17.30;;;3.70;91.10;;;;;;5104051;28;20047;-57
2023/01/23 11:50:36;;;;;;;81.53;17.48;;;3.70;91.20;;;;;;5104756;28;20032;-58
2023/01/23 11:53:33;;;;;;;84.15;17.30;;;3.70;91.40;;;;;;5087577;28;20028;-58
2023/01/23 11:56:05;;;;;;;63.17;15.10;;;3.70;91.30;;;;;;5100883;28;20112;-58
2023/01/23 11:59:17;;;;;;;64.03;16.83;;;3.70;91.40;;;;;;5104134;28;20063;-58
2023/01/23 12:01:58;;;;;;;59.70;15.98;;;3.70;91.60;;;;;;5075895;28;20039;-58
2023/01/23 12:04:55;;;;;;;50.55;16.15;;;3.70;91.30;;;;;;5105550;28;20021;-58
2023/01/23 12:07:23;;;;;;;66.13;16.83;;;3.70;91.30;;;;;;5104636;28;20050;-59
2023/01/23 12:10:17;;;;;;;61.00;16.48;;;3.60;91.20;;;;;;5103811;28;20020;-58
2023/01/23 12:13:02;;;;;;;81.75;16.92;;;3.60;91.30;;;;;;5104083;28;20032;-58
2023/01/23 12:15:50;;;;;;;57.92;13.23;;;3.70;91.30;;;;;;5105229;28;20028;-58
2023/01/23 12:18:23;;;;;;;62.55;16.17;;;3.70;91.40;;;;;;5089707;28;20100;-58
2023/01/23 12:21:12;;;;;;;63.47;15.63;;;3.70;91.30;;;;;;5104346;28;20024;-58
2023/01/23 12:24:06;;;;;;;53.95;16.17;;;3.60;91.30;;;;;;5104357;28;20032;-59
2023/01/23 12:26:31;;;;;;;44.67;15.00;;;3.70;91.40;;;;;;5105441;28;20024;-58
2023/01/23 12:29:06;;;;;;;43.90;14.18;;;3.70;91.40;;;;;;5104120;28;20037;-58
2023/01/23 12:31:40;;;;;;;54.97;16.27;;;3.70;91.30;;;;;;5105164;28;20048;-58
2023/01/23 12:34:21;;;;;;;49.78;15.90;;;3.70;91.30;;;;;;5103989;28;20476;-58
2023/01/23 12:37:06;;;;;;;57.63;15.80;;;3.70;91.30;;;;;;5105200;28;20024;-58
2023/01/23 12:39:54;;;;;;;48.30;15.60;;;3.70;91.30;;;;;;5104385;28;20028;-58
2023/01/23 12:42:40;;;;;;;45.78;15.90;;;3.70;91.30;;;;;;5105222;28;20046;-58
2023/01/23 12:45:14;;;;;;;47.88;15.52;;;3.70;91.40;;;;;;5103687;28;20058;-58
2023/01/23 12:47:43;;;;;;;42.83;14.57;;;3.70;91.40;;;;;;5105091;28;20076;-59
2023/01/23 12:50:31;;;;;;;48.65;16.02;;;3.60;91.30;;;;;;5103777;28;20110;-58
2023/01/23 12:53:03;;;;;;;59.65;17.15;;;3.70;91.50;;;;;;5104937;28;20028;-58
2023/01/23 12:55:47;;;;;;;50.55;15.23;;;3.70;91.50;;;;;;5103552;28;20025;-58